ADDS METAR Data INFO
IDs: Format: Raw Decoded Include TAF

Data at: 1540 UTC 24 Sep 2017

KCLL 241530Z 13008KT 10SM SCT018 SCT030 28/23 A2993 RMK AO2 T02830228
KCLL 241523Z 13009KT 10SM BKN018 28/23 A2993 RMK AO2 T02830233
KCLL 241453Z 14011KT 10SM FEW014 28/23 A2992 RMK AO2 SLP126 T02780233 53012
KCLL 241353Z 10006KT 7SM CLR 25/23 A2991 RMK AO2 SLP124 T02500233
KCLL 241253Z 07004KT 5SM BR CLR 23/22 A2990 RMK AO2 SLP119 T02280222
KCLL 241153Z AUTO 07003KT 7SM CLR 22/21 A2989 RMK AO2 SLP115 T02220211 10239 20222 56003
KCLL 241053Z AUTO 06004KT 7SM CLR 22/21 A2989 RMK AO2 SLP117 T02220211
KCLL 240953Z AUTO 07004KT 9SM CLR 22/22 A2989 RMK AO2 SLP116 T02220217
KCLL 240853Z AUTO 11003KT 9SM CLR 23/22 A2990 RMK AO2 SLP118 T02280217 50002
KCLL 240753Z AUTO 00000KT 10SM CLR 23/21 A2990 RMK AO2 SLP118 T02280211
KCLL 240653Z AUTO 00000KT 10SM CLR 23/21 A2990 RMK AO2 SLP118 T02280211
KCLL 240553Z AUTO 15004KT 10SM CLR 24/22 A2989 RMK AO2 SLP116 T02390217 10306 20233 403280222 50003
KCLL 232053Z 120005KT 10SM SCT049 SCT065 SCT080 32/20 A2987
KCLL 231853Z 14005G15KT 10SM FEW043 FEW060 32/21 A2991
KCLL 231353Z 00000KT BKN050 25/23 A2995